Terminal Aerodrome Forecast
Issued by NWS

Home | Current Version | Previous Version | Text Only | Print | Product List | Glossary Off
Versions: 1 2 3 4 5 6 7 8 9 10 11 12

142
FTUS43 KMPX 211720
TAFRNH
TAF
KRNH 211720Z 2118/2218 13010KT P6SM SKC
     FM212200 14009KT P6SM BKN035
     FM220200 16008KT P6SM SCT050 PROB30 2207/2212 -TSRA BKN050CB
     FM221600 18011G17KT P6SM BKN250=

USA.gov is the U.S. government's official web portal to all federal, state and local government web resources and services.